createdAt,value
2019-04-23T00:01:49.260Z,5.17
2019-04-23T00:04:19.655Z,5.27
2019-04-23T00:06:48.856Z,5.87
2019-04-23T00:09:22.345Z,5.20
2019-04-23T00:11:39.811Z,5.17
2019-04-23T00:14:13.405Z,5.67
2019-04-23T00:16:51.159Z,5.40
2019-04-23T00:19:01.077Z,5.97
2019-04-23T00:24:12.017Z,5.37
2019-04-23T00:29:06.666Z,5.77
2019-04-23T00:31:34.998Z,5.80
2019-04-23T00:33:56.779Z,5.73
2019-04-23T00:36:27.777Z,5.33
2019-04-23T00:39:06.313Z,5.73
2019-04-23T00:41:15.970Z,5.87
2019-04-23T00:43:52.730Z,5.77
2019-04-23T00:46:18.466Z,5.83
2019-04-23T00:48:52.251Z,6.30
2019-04-23T00:51:02.959Z,5.70
2019-04-23T00:53:32.662Z,6.17
2019-04-23T00:56:19.424Z,5.73
2019-04-23T00:58:38.027Z,6.20
2019-04-23T01:01:00.382Z,6.40
2019-04-23T01:03:42.213Z,6.60
2019-04-23T01:05:52.296Z,5.83
2019-04-23T01:08:28.505Z,6.27
2019-04-23T01:10:56.473Z,5.90
2019-04-23T01:14:24.559Z,6.93
2019-04-23T01:15:57.719Z,6.03
2019-04-23T01:18:32.602Z,6.20
2019-04-23T01:20:53.743Z,6.50
2019-04-23T01:23:11.577Z,6.17
2019-04-23T01:25:52.196Z,5.60
2019-04-23T01:28:35.623Z,6.17
2019-04-23T01:36:09.694Z,6.27
2019-04-23T01:38:30.963Z,6.67
2019-04-23T01:41:09.544Z,6.70
2019-04-23T01:43:23.445Z,6.90
2019-04-23T01:45:40.932Z,6.27
2019-04-23T01:48:12.878Z,6.60
2019-04-23T01:50:48.725Z,7.23
2019-04-23T01:53:14.989Z,7.10
2019-04-23T01:55:44.954Z,6.80
2019-04-23T02:05:39.718Z,6.60
2019-04-23T02:08:06.471Z,6.77
2019-04-23T02:10:53.730Z,6.40
2019-04-23T02:20:39.833Z,6.90
2019-04-23T02:23:21.417Z,7.00
2019-04-23T02:25:53.812Z,7.00
2019-04-23T02:28:25.757Z,7.17
2019-04-23T02:31:03.808Z,6.90
2019-04-23T02:35:42.678Z,7.47
2019-04-23T02:40:46.767Z,8.00
2019-04-23T02:43:15.264Z,7.80
2019-04-23T02:45:39.230Z,7.50
2019-04-23T02:52:57.568Z,7.80
2019-04-23T02:55:31.448Z,7.90
2019-04-23T02:57:56.260Z,8.07
2019-04-23T03:00:27.763Z,8.33
2019-04-23T03:02:56.869Z,7.73
2019-04-23T03:10:11.803Z,7.87
2019-04-23T03:12:42.758Z,8.57
2019-04-23T03:15:44.686Z,8.27
2019-04-23T03:18:04.732Z,7.47
2019-04-23T03:23:03.609Z,8.70
2019-04-23T03:25:49.602Z,8.57
2019-04-23T03:27:58.900Z,9.03
2019-04-23T03:36:02.131Z,8.80
2019-04-23T03:37:58.583Z,9.00
2019-04-23T03:43:04.378Z,8.70
2019-04-23T03:47:44.760Z,9.17
2019-04-23T03:50:23.677Z,9.23
2019-04-23T03:55:28.091Z,9.30
2019-04-23T04:00:22.438Z,9.70
2019-04-23T04:02:40.418Z,8.93
2019-04-23T04:04:53.648Z,8.93
2019-04-23T04:07:35.815Z,8.97
2019-04-23T04:12:29.406Z,9.10
2019-04-23T04:15:03.814Z,9.23
2019-04-23T04:17:16.043Z,9.30
2019-04-23T04:22:18.258Z,9.50
2019-04-23T04:24:40.235Z,9.57
2019-04-23T04:32:00.781Z,9.30
2019-04-23T04:34:55.576Z,8.87
2019-04-23T04:37:27.258Z,9.67
2019-04-23T04:39:26.590Z,9.47
2019-04-23T04:52:01.089Z,9.93
2019-04-23T04:56:42.694Z,10.07
2019-04-23T05:04:02.433Z,10.10
2019-04-23T05:06:37.494Z,10.33
2019-04-23T05:09:02.160Z,9.80
2019-04-23T05:11:44.271Z,10.47
2019-04-23T05:13:54.909Z,11.33
2019-04-23T05:16:21.623Z,10.13
2019-04-23T05:26:19.298Z,10.80
2019-04-23T05:28:48.912Z,9.80
2019-04-23T05:31:08.597Z,9.97
2019-04-23T05:33:57.224Z,9.67
2019-04-23T05:38:51.086Z,10.87
2019-04-23T05:41:07.600Z,10.90
2019-04-23T05:43:28.002Z,10.20
2019-04-23T05:45:56.633Z,10.67
2019-04-23T05:53:21.116Z,10.73
2019-04-23T05:55:47.614Z,10.57
2019-04-23T05:58:16.647Z,10.80
2019-04-23T06:00:48.095Z,11.03
2019-04-23T06:03:14.830Z,10.03
2019-04-23T06:05:44.853Z,10.37
2019-04-23T06:08:25.553Z,10.37
2019-04-23T06:10:36.297Z,10.03
2019-04-23T06:12:59.662Z,10.77
2019-04-23T06:15:32.206Z,10.10
2019-04-23T06:18:02.254Z,11.00
2019-04-23T06:20:28.752Z,10.80
2019-04-23T06:23:01.057Z,10.30
2019-04-23T06:25:47.811Z,10.60
2019-04-23T06:30:19.243Z,9.90
2019-04-23T06:32:42.837Z,10.10
2019-04-23T06:35:11.830Z,10.47
2019-04-23T06:38:04.789Z,10.50
2019-04-23T06:40:08.699Z,9.83
2019-04-23T06:42:34.675Z,10.20
2019-04-23T06:44:59.965Z,10.30
2019-04-23T06:47:28.932Z,10.43
2019-04-23T06:52:21.808Z,9.63
2019-04-23T06:55:01.441Z,10.07
2019-04-23T06:57:22.444Z,10.30
2019-04-23T06:59:52.631Z,9.53
2019-04-23T07:02:18.489Z,9.53
2019-04-23T07:05:06.564Z,8.77
2019-04-23T07:07:41.029Z,9.50
2019-04-23T07:09:38.944Z,9.60
2019-04-23T07:12:08.677Z,10.10
2019-04-23T07:14:44.061Z,9.03
2019-04-23T07:17:03.858Z,9.77
2019-04-23T07:19:39.130Z,8.73
2019-04-23T07:22:08.259Z,8.87
2019-04-23T07:24:32.862Z,8.80
2019-04-23T07:26:45.296Z,8.70
2019-04-23T07:29:27.631Z,9.40
2019-04-23T07:31:54.545Z,8.53
2019-04-23T07:34:20.361Z,9.07
2019-04-23T07:36:47.982Z,8.80
2019-04-23T07:44:29.788Z,8.27
2019-04-23T07:47:11.679Z,8.17
2019-04-23T07:49:30.819Z,8.63
2019-04-23T07:52:04.802Z,7.70
2019-04-23T07:57:02.584Z,7.87
2019-04-23T07:59:27.309Z,8.47
2019-04-23T08:01:49.599Z,8.70
2019-04-23T08:04:18.275Z,8.67
2019-04-23T08:06:47.694Z,8.17
2019-04-23T08:09:10.931Z,8.00
2019-04-23T08:11:42.682Z,7.57
2019-04-23T08:14:02.080Z,8.93
2019-04-23T08:16:33.935Z,8.60
2019-04-23T08:19:14.211Z,8.17
2019-04-23T08:24:17.011Z,7.77
2019-04-23T08:26:50.293Z,8.60
2019-04-23T08:29:20.207Z,8.33
2019-04-23T08:31:51.998Z,7.67
2019-04-23T08:34:25.558Z,7.43
2019-04-23T08:36:51.860Z,7.63
2019-04-23T08:39:12.070Z,8.23
2019-04-23T08:41:46.125Z,8.03
2019-04-23T08:44:25.436Z,7.23
2019-04-23T08:47:03.263Z,8.17
2019-04-23T08:49:36.440Z,7.13
2019-04-23T08:52:02.470Z,7.43
2019-04-23T08:54:42.887Z,7.57
2019-04-23T08:57:04.073Z,7.30
2019-04-23T08:59:37.245Z,7.40
2019-04-23T09:02:07.181Z,7.17
2019-04-23T09:04:23.673Z,6.80
2019-04-23T09:07:00.239Z,7.07
2019-04-23T09:09:24.938Z,7.23
2019-04-23T09:14:09.004Z,7.53
2019-04-23T09:16:44.679Z,7.20
2019-04-23T09:21:37.384Z,7.07
2019-04-23T09:24:05.794Z,7.20
2019-04-23T09:26:26.203Z,7.40
2019-04-23T09:29:01.138Z,7.13
2019-04-23T09:31:55.387Z,7.00
2019-04-23T09:34:09.766Z,7.57
2019-04-23T09:37:00.143Z,6.63
2019-04-23T09:39:27.740Z,6.73
2019-04-23T09:42:03.328Z,6.90
2019-04-23T09:47:30.057Z,6.80
2019-04-23T09:49:58.946Z,6.87
2019-04-23T09:52:20.342Z,7.17
2019-04-23T09:54:49.777Z,6.73
2019-04-23T09:57:13.420Z,6.40
2019-04-23T09:59:43.059Z,6.47
2019-04-23T10:02:01.040Z,6.50
2019-04-23T10:04:23.201Z,6.17
2019-04-23T10:06:39.249Z,6.40
2019-04-23T10:09:10.144Z,6.07
2019-04-23T10:11:34.649Z,6.63
2019-04-23T10:14:00.828Z,6.20
2019-04-23T10:16:30.278Z,6.90
2019-04-23T10:18:55.150Z,5.97
2019-04-23T10:21:21.475Z,5.93
2019-04-23T10:23:47.604Z,6.33
2019-04-23T10:26:14.249Z,5.67
2019-04-23T10:28:42.255Z,5.80
2019-04-23T10:31:09.059Z,5.70
2019-04-23T10:33:34.896Z,6.07
2019-04-23T10:36:04.816Z,5.90
2019-04-23T10:38:30.194Z,6.07
2019-04-23T10:40:56.281Z,5.30
2019-04-23T10:43:22.688Z,5.33
2019-04-23T10:46:07.830Z,5.50
2019-04-23T10:51:25.147Z,5.73
2019-04-23T10:53:42.770Z,5.40
2019-04-23T10:56:21.432Z,5.70
2019-04-23T10:58:38.551Z,5.07
2019-04-23T11:01:18.692Z,5.30
2019-04-23T11:03:48.685Z,4.87
2019-04-23T11:06:17.614Z,5.57
2019-04-23T11:08:38.335Z,5.23
2019-04-23T11:11:09.302Z,5.30
2019-04-23T11:13:38.349Z,4.63
2019-04-23T11:18:48.813Z,4.97
2019-04-23T11:21:05.349Z,4.63
2019-04-23T11:23:29.479Z,4.43
2019-04-23T11:25:55.897Z,4.70
2019-04-23T11:28:27.521Z,4.27
2019-04-23T11:31:03.475Z,4.60
2019-04-23T11:36:22.164Z,4.73
2019-04-23T11:38:50.781Z,4.97
2019-04-23T11:40:43.606Z,5.03
2019-04-23T11:43:20.465Z,4.77
2019-04-23T11:48:33.006Z,4.63
2019-04-23T11:51:24.124Z,5.00
2019-04-23T11:53:18.446Z,4.50
2019-04-23T11:55:47.645Z,4.97
2019-04-23T12:00:46.383Z,4.40
2019-04-23T12:02:57.948Z,5.00
2019-04-23T12:05:58.254Z,5.00
2019-04-23T12:08:25.127Z,5.33
2019-04-23T12:13:21.451Z,4.50
2019-04-23T12:18:10.056Z,4.67
2019-04-23T12:20:37.932Z,4.90
2019-04-23T12:23:19.368Z,4.67
2019-04-23T12:25:36.167Z,4.97
2019-04-23T12:27:59.699Z,4.87
2019-04-23T12:30:36.219Z,4.83
2019-04-23T12:33:06.658Z,4.50
2019-04-23T12:35:22.446Z,4.37
2019-04-23T12:40:52.182Z,4.77
2019-04-23T12:45:43.879Z,4.53
2019-04-23T12:48:09.761Z,5.03
2019-04-23T12:55:31.934Z,4.40
2019-04-23T13:05:19.116Z,4.90
2019-04-23T13:07:43.747Z,4.50
2019-04-23T13:10:14.893Z,4.83
2019-04-23T13:15:11.416Z,4.30
2019-04-23T13:25:09.518Z,5.80
2019-04-23T13:27:57.143Z,4.33
2019-04-23T13:30:27.927Z,3.80
2019-04-23T13:32:50.202Z,4.47
2019-04-23T13:35:28.048Z,4.43
2019-04-23T13:37:47.341Z,4.17
2019-04-23T13:40:09.534Z,4.53
2019-04-23T13:42:52.403Z,4.00
2019-04-23T13:45:04.956Z,4.00
2019-04-23T13:47:47.229Z,3.60
2019-04-23T13:50:07.864Z,3.80
2019-04-23T13:55:04.483Z,4.30
2019-04-23T13:59:53.452Z,4.23
2019-04-23T14:02:30.004Z,3.70
2019-04-23T14:04:59.720Z,4.17
2019-04-23T14:07:30.389Z,3.80
2019-04-23T14:12:22.233Z,3.50
2019-04-23T14:19:45.270Z,3.73
2019-04-23T14:22:31.529Z,3.97
2019-04-23T14:24:53.149Z,3.53
2019-04-23T14:27:18.131Z,4.07
2019-04-23T14:32:08.494Z,3.83
2019-04-23T14:34:35.281Z,3.73
2019-04-23T14:39:32.138Z,3.87
2019-04-23T14:42:01.149Z,3.63
2019-04-23T14:44:18.996Z,3.50
2019-04-23T14:47:03.461Z,3.10
2019-04-23T14:49:30.934Z,3.80
2019-04-23T14:52:02.463Z,4.23
2019-04-23T14:54:34.681Z,3.63
2019-04-23T14:56:58.824Z,4.23
2019-04-23T14:59:29.149Z,4.00
2019-04-23T15:01:48.970Z,3.63
2019-04-23T15:04:10.940Z,3.73
2019-04-23T15:06:51.612Z,3.70
2019-04-23T15:11:44.115Z,3.50
2019-04-23T15:14:10.098Z,4.43
2019-04-23T15:16:39.677Z,3.67
2019-04-23T15:23:10.706Z,4.20
2019-04-23T15:28:57.337Z,3.80
2019-04-23T15:39:19.161Z,3.67
2019-04-23T15:41:40.487Z,3.57
2019-04-23T15:44:05.005Z,3.97
2019-04-23T15:46:32.694Z,4.20
2019-04-23T15:53:48.557Z,3.97
2019-04-23T15:56:26.848Z,4.53
2019-04-23T15:58:56.180Z,3.80
2019-04-23T16:01:21.251Z,4.00
2019-04-23T16:03:17.534Z,3.73
2019-04-23T16:05:44.627Z,3.53
2019-04-23T16:08:48.096Z,4.37
2019-04-23T16:11:15.626Z,3.83
2019-04-23T16:13:53.380Z,3.60
2019-04-23T16:16:07.697Z,4.50
2019-04-23T16:18:37.364Z,3.90
2019-04-23T16:21:14.627Z,4.40
2019-04-23T16:23:28.076Z,4.27
2019-04-23T16:26:01.863Z,4.60
2019-04-23T16:28:35.563Z,4.07
2019-04-23T16:31:00.872Z,4.50
2019-04-23T16:33:16.280Z,4.33
2019-04-23T16:40:47.756Z,5.20
2019-04-23T16:43:23.120Z,4.17
2019-04-23T16:45:52.672Z,4.30
2019-04-23T16:48:33.234Z,4.47
2019-04-23T16:51:06.186Z,4.50
2019-04-23T16:53:21.489Z,4.97
2019-04-23T17:03:13.021Z,4.00
2019-04-23T17:05:46.558Z,5.03
2019-04-23T17:08:32.579Z,4.67
2019-04-23T17:10:36.618Z,4.67
2019-04-23T17:13:04.729Z,4.43
2019-04-23T17:15:40.795Z,4.53
2019-04-23T17:18:03.540Z,4.60
2019-04-23T17:20:30.946Z,5.73
2019-04-23T17:22:56.347Z,4.70
2019-04-23T17:25:20.435Z,5.07
2019-04-23T17:27:58.962Z,5.67
2019-04-23T17:30:19.918Z,4.70
2019-04-23T17:32:57.240Z,4.47
2019-04-23T17:35:29.757Z,4.93
2019-04-23T17:38:07.683Z,5.00
2019-04-23T17:40:30.645Z,4.70
2019-04-23T17:43:04.668Z,5.43
2019-04-23T17:45:32.383Z,5.30
2019-04-23T17:48:08.754Z,4.67
2019-04-23T17:50:31.918Z,5.07
2019-04-23T17:55:29.756Z,5.33
2019-04-23T17:58:01.136Z,4.97
2019-04-23T18:00:34.076Z,5.40
2019-04-23T18:03:01.199Z,5.20
2019-04-23T18:05:36.735Z,5.23
2019-04-23T18:07:55.987Z,5.43
2019-04-23T18:15:10.644Z,5.13
2019-04-23T18:17:41.303Z,5.37
2019-04-23T18:20:16.335Z,5.10
2019-04-23T18:22:48.777Z,5.83
2019-04-23T18:25:17.075Z,5.43
2019-04-23T18:27:47.096Z,5.57
2019-04-23T18:30:23.143Z,4.87
2019-04-23T18:35:53.396Z,5.77
2019-04-23T18:38:04.891Z,5.70
2019-04-23T18:40:38.768Z,5.93
2019-04-23T18:43:15.258Z,5.30
2019-04-23T18:45:41.466Z,5.67
2019-04-23T18:48:34.373Z,5.37
2019-04-23T18:53:22.737Z,6.27
2019-04-23T18:55:54.429Z,6.03
2019-04-23T18:58:12.173Z,5.70
2019-04-23T19:01:01.954Z,6.00
2019-04-23T19:03:23.144Z,5.27
2019-04-23T19:05:58.681Z,5.70
2019-04-23T19:08:39.189Z,6.23
2019-04-23T19:11:09.041Z,6.20
2019-04-23T19:13:42.133Z,5.63
2019-04-23T19:15:53.606Z,7.20
2019-04-23T19:25:51.454Z,6.30
2019-04-23T19:28:34.639Z,6.50
2019-04-23T19:31:07.413Z,6.60
2019-04-23T19:33:50.352Z,6.80
2019-04-23T19:38:31.549Z,6.90
2019-04-23T19:46:00.659Z,7.20
2019-04-23T19:48:27.016Z,7.80
2019-04-23T19:53:27.786Z,6.97
2019-04-23T19:56:00.526Z,6.77
2019-04-23T19:58:13.843Z,7.13
2019-04-23T20:01:01.913Z,6.87
2019-04-23T20:05:41.082Z,7.83
2019-04-23T20:10:35.150Z,7.00
2019-04-23T20:12:59.124Z,7.47
2019-04-23T20:15:42.748Z,7.83
2019-04-23T20:17:54.208Z,7.43
2019-04-23T20:20:25.169Z,8.00
2019-04-23T20:25:56.612Z,7.07
2019-04-23T20:27:58.350Z,7.73
2019-04-23T20:33:53.054Z,7.53
2019-04-23T20:35:43.687Z,7.97
2019-04-23T20:38:25.570Z,7.87
2019-04-23T20:40:49.079Z,8.13
2019-04-23T20:42:58.752Z,8.20
2019-04-23T20:45:41.033Z,7.40
2019-04-23T20:50:34.537Z,8.30
2019-04-23T20:52:56.370Z,7.83
2019-04-23T20:55:44.255Z,7.90
2019-04-23T20:58:14.257Z,7.03
2019-04-23T21:00:33.975Z,7.30
2019-04-23T21:03:28.934Z,7.27
2019-04-23T21:05:22.771Z,7.93
2019-04-23T21:10:35.778Z,7.77
2019-04-23T21:13:06.842Z,7.50
2019-04-23T21:15:30.986Z,7.43
2019-04-23T21:17:59.577Z,8.03
2019-04-23T21:20:27.724Z,8.30
2019-04-23T21:25:22.823Z,8.53
2019-04-23T21:27:55.320Z,7.97
2019-04-23T21:30:53.573Z,8.87
2019-04-23T21:33:05.409Z,8.40
2019-04-23T21:36:03.199Z,8.10
2019-04-23T21:38:46.422Z,8.60
2019-04-23T21:41:05.521Z,8.60
2019-04-23T21:44:00.550Z,9.40
2019-04-23T21:46:15.244Z,9.73
2019-04-23T21:48:44.054Z,8.97
2019-04-23T21:51:09.844Z,9.77
2019-04-23T21:53:36.250Z,9.17
2019-04-23T21:58:25.913Z,9.03
2019-04-23T22:00:59.350Z,9.50
2019-04-23T22:03:35.667Z,9.83
2019-04-23T22:06:01.742Z,9.63
2019-04-23T22:08:27.157Z,9.83
2019-04-23T22:11:00.414Z,9.83
2019-04-23T22:15:54.699Z,10.43
2019-04-23T22:18:06.801Z,10.27
2019-04-23T22:20:44.198Z,10.30
2019-04-23T22:25:42.014Z,10.80
2019-04-23T22:28:05.416Z,11.27
2019-04-23T22:30:31.452Z,10.80
2019-04-23T22:33:09.468Z,10.83
2019-04-23T22:35:37.972Z,11.37
2019-04-23T22:38:02.391Z,11.17
2019-04-23T22:40:10.417Z,12.13
2019-04-23T22:43:01.274Z,11.23
2019-04-23T22:45:27.173Z,10.57
2019-04-23T22:47:39.401Z,11.37
2019-04-23T22:50:06.178Z,10.97
2019-04-23T22:52:40.676Z,11.43
2019-04-23T22:55:14.006Z,11.03
2019-04-23T22:57:56.014Z,10.83
2019-04-23T23:02:54.567Z,11.53
2019-04-23T23:07:47.175Z,11.50
2019-04-23T23:10:12.902Z,11.83
2019-04-23T23:12:49.155Z,12.50
2019-04-23T23:15:10.265Z,11.87
2019-04-23T23:17:31.011Z,10.83
2019-04-23T23:20:11.746Z,11.90
2019-04-23T23:22:28.113Z,12.20
2019-04-23T23:24:55.941Z,11.67
2019-04-23T23:27:23.731Z,12.50
2019-04-23T23:30:00.019Z,12.53
2019-04-23T23:32:23.096Z,12.23
2019-04-23T23:35:05.875Z,12.37
2019-04-23T23:39:51.506Z,12.77
2019-04-23T23:42:11.199Z,12.43
2019-04-23T23:44:47.912Z,12.03
2019-04-23T23:47:10.568Z,12.80
2019-04-23T23:49:33.868Z,11.37
2019-04-23T23:51:57.338Z,12.23
2019-04-23T23:54:17.639Z,12.90
2019-04-23T23:57:09.166Z,12.47
